Time;durP1;ratioP1;P1;durP2;ratioP2;P2;SDS_P1;SDS_P2;PMS_P1;PMS_P2;Temp;Humidity;BMP_temperature;BMP_pressure;BME280_temperature;BME280_humidity;BME280_pressure;Samples;Min_cycle;Max_cycle;Signal;HPM_P1;HPM_P2
2022/10/10 00:01:13;;;;;;;0.73;0.40;;;;;;;12.63;78.45;101140.63;5026350;28;20389;-64
2022/10/10 00:03:39;;;;;;;1.05;0.52;;;;;;;12.53;79.78;101133.06;5022487;28;20049;-64
2022/10/10 00:06:04;;;;;;;2.30;0.80;;;;;;;12.68;79.03;101134.91;5031762;28;20045;-64
2022/10/10 00:08:30;;;;;;;2.88;0.80;;;;;;;12.68;79.15;101137.63;5030791;28;20112;-64
2022/10/10 00:10:55;;;;;;;1.88;0.65;;;;;;;12.74;78.78;101140.06;5006928;28;20029;-64
2022/10/10 00:13:21;;;;;;;7.07;1.00;;;;;;;12.91;77.74;101136.91;5020275;28;20033;-64
2022/10/10 00:15:46;;;;;;;2.13;0.70;;;;;;;12.85;78.52;101136.41;5030124;28;20026;-64
2022/10/10 00:18:12;;;;;;;1.02;0.80;;;;;;;12.62;78.57;101130.16;5029344;28;20029;-64
2022/10/10 00:20:37;;;;;;;0.80;0.80;;;;;;;12.35;80.34;101126.53;5026715;28;20041;-64
2022/10/10 00:23:03;;;;;;;0.98;0.50;;;;;;;12.57;79.15;101127.75;5030997;28;20095;-63
2022/10/10 00:25:28;;;;;;;0.50;0.50;;;;;;;12.67;79.32;101117.16;5031049;28;20512;-64
2022/10/10 00:27:54;;;;;;;0.70;0.70;;;;;;;12.60;79.25;101117.00;5022897;28;20041;-64
2022/10/10 00:30:19;;;;;;;2.97;0.40;;;;;;;12.63;78.95;101116.31;5021007;28;20025;-64
2022/10/10 00:32:45;;;;;;;3.60;0.68;;;;;;;12.59;78.91;101110.03;5031173;28;20056;-64
2022/10/10 00:35:11;;;;;;;3.42;0.80;;;;;;;12.60;78.89;101108.88;5029000;28;20036;-64
2022/10/10 00:37:36;;;;;;;3.78;0.90;;;;;;;12.67;79.07;101106.34;5024818;28;20033;-64
2022/10/10 00:40:02;;;;;;;1.17;0.85;;;;;;;12.41;79.71;101097.31;5030055;28;20040;-64
2022/10/10 00:42:28;;;;;;;2.45;1.25;;;;;;;12.64;79.02;101095.44;5029581;28;20427;-64
2022/10/10 00:45:31;;;;;;;1.33;0.82;;;;;;;12.58;78.44;101102.31;5025463;28;20076;-64
2022/10/10 00:48:05;;;;;;;2.10;0.93;;;;;;;12.59;78.81;101088.44;5022282;28;20041;-64
2022/10/10 00:50:36;;;;;;;2.28;1.00;;;;;;;12.67;79.01;101075.81;5029596;28;20099;-63
2022/10/10 00:53:04;;;;;;;2.88;0.80;;;;;;;12.73;78.70;101077.09;5016350;28;20061;-64
2022/10/10 00:55:29;;;;;;;3.53;0.77;;;;;;;12.39;79.59;101070.66;5022465;28;20080;-63
2022/10/10 00:57:54;;;;;;;3.10;0.70;;;;;;;12.33;80.33;101074.78;5029970;28;20038;-63
2022/10/10 01:00:20;;;;;;;2.28;0.98;;;;;;;12.43;79.64;101066.09;5014651;28;20038;-64
2022/10/10 01:02:45;;;;;;;0.73;0.52;;;;;;;12.51;79.68;101075.91;5017774;28;20047;-64
2022/10/10 01:05:11;;;;;;;4.78;1.48;;;;;;;12.56;78.96;101067.50;5018057;28;20112;-64
2022/10/10 01:07:37;;;;;;;5.28;1.05;;;;;;;12.71;78.46;101073.97;5024411;28;20083;-64
2022/10/10 01:10:10;;;;;;;1.15;0.70;;;;;;;12.69;78.38;101066.22;5027447;28;20017;-64
2022/10/10 01:13:08;;;;;;;0.90;0.65;;;;;;;12.49;78.78;101066.59;5030062;28;20045;-64
2022/10/10 01:15:57;;;;;;;0.50;0.50;;;;;;;12.39;79.07;101054.44;5030192;28;20030;-64
2022/10/10 01:18:27;;;;;;;3.58;0.90;;;;;;;12.28;80.26;101055.38;5022223;28;20044;-64
2022/10/10 01:20:58;;;;;;;1.25;0.70;;;;;;;12.31;80.39;101055.44;5025845;28;20429;-64
2022/10/10 01:24:01;;;;;;;2.70;0.85;;;;;;;12.40;79.69;101053.31;5030405;28;20075;-63
2022/10/10 01:26:57;;;;;;;2.35;0.98;;;;;;;12.53;79.33;101052.03;5017183;28;20025;-63
2022/10/10 01:29:27;;;;;;;4.05;1.00;;;;;;;12.28;79.81;101049.97;5017032;28;20183;-63
2022/10/10 01:31:55;;;;;;;3.92;1.02;;;;;;;12.41;79.83;101041.38;5029912;28;20090;-64
2022/10/10 01:34:20;;;;;;;2.05;0.80;;;;;;;12.53;78.82;101035.03;5029979;28;20452;-63
2022/10/10 01:36:50;;;;;;;3.90;1.17;;;;;;;12.50;78.68;101036.50;5019495;28;20037;-64
2022/10/10 01:39:57;;;;;;;1.30;0.60;;;;;;;12.45;78.92;101028.72;5028539;28;20127;-64
2022/10/10 01:42:39;;;;;;;2.30;0.65;;;;;;;12.27;79.87;101033.00;5012287;28;20045;-64
2022/10/10 01:45:05;;;;;;;2.47;0.60;;;;;;;12.29;79.66;101019.16;5027644;28;20042;-64
2022/10/10 01:47:31;;;;;;;1.05;0.70;;;;;;;12.16;80.18;101023.91;5022309;28;20034;-64
2022/10/10 01:50:01;;;;;;;2.05;0.70;;;;;;;12.22;79.80;101017.09;5049377;23;20064;-71
2022/10/10 01:52:54;;;;;;;2.60;0.68;;;;;;;12.12;79.99;101023.06;5007446;28;20494;-71
2022/10/10 01:55:32;;;;;;;3.40;0.95;;;;;;;12.06;81.05;101018.31;4996879;28;20430;-70
2022/10/10 01:58:21;;;;;;;2.75;0.57;;;;;;;11.88;81.35;101015.25;5009392;28;20496;-70
2022/10/10 02:01:05;;;;;;;4.63;1.00;;;;;;;11.92;81.12;101009.91;4991899;28;20038;-70
2022/10/10 02:03:36;;;;;;;0.70;0.70;;;;;;;12.10;80.62;101000.28;4980833;28;20030;-70
2022/10/10 02:06:23;;;;;;;1.05;0.95;;;;;;;11.87;81.66;101008.28;4989035;28;20423;-70
2022/10/10 02:08:58;;;;;;;1.15;0.85;;;;;;;12.03;80.88;101005.50;4990837;28;20045;-70
2022/10/10 02:11:27;;;;;;;1.10;1.00;;;;;;;12.09;80.84;101012.97;4978446;28;20026;-71
2022/10/10 02:14:01;;;;;;;1.55;0.95;;;;;;;12.05;80.43;101005.94;4982853;28;20037;-70
2022/10/10 02:16:32;;;;;;;1.20;0.77;;;;;;;11.84;81.59;101005.50;4990112;28;20053;-70
2022/10/10 02:19:01;;;;;;;2.42;1.00;;;;;;;11.96;81.50;100997.28;4985555;28;20045;-70
2022/10/10 02:21:28;;;;;;;1.85;0.93;;;;;;;11.75;81.44;100993.00;4984588;28;20118;-70
2022/10/10 02:24:00;;;;;;;1.58;1.00;;;;;;;11.88;81.68;101007.16;4990258;28;20034;-71
2022/10/10 02:26:27;;;;;;;1.92;1.15;;;;;;;11.83;81.46;100995.88;4987650;28;20030;-70
2022/10/10 02:28:59;;;;;;;0.60;0.60;;;;;;;11.82;81.75;100995.06;4987240;28;20035;-70
2022/10/10 02:31:40;;;;;;;2.72;0.90;;;;;;;11.86;82.08;100992.44;4991922;28;20483;-71
2022/10/10 02:34:15;;;;;;;1.10;0.90;;;;;;;11.77;81.68;100988.03;4993030;28;20070;-70
2022/10/10 02:36:46;;;;;;;0.80;0.70;;;;;;;11.94;81.99;100992.25;4991528;28;20043;-70
2022/10/10 02:39:13;;;;;;;;;;;;;;;11.93;81.00;100984.47;4992815;28;20483;-70
2022/10/10 02:41:41;;;;;;;0.52;0.40;;;;;;;11.97;80.55;100988.81;4992470;28;19921;-70
2022/10/10 02:44:07;;;;;;;0.73;0.73;;;;;;;11.89;80.91;100983.63;4994102;28;20093;-70
2022/10/10 02:46:32;;;;;;;2.83;0.85;;;;;;;11.89;81.34;100987.09;4985336;28;20038;-70
2022/10/10 02:49:00;;;;;;;1.95;0.90;;;;;;;11.86;80.97;100990.53;4993184;28;20026;-70
2022/10/10 02:51:25;;;;;;;0.98;0.82;;;;;;;11.91;81.34;100975.94;4989148;28;20410;-70
2022/10/10 02:53:51;;;;;;;2.95;0.98;;;;;;;11.83;81.78;100969.63;4990665;28;20035;-70
2022/10/10 02:56:16;;;;;;;10.48;1.52;;;;;;;11.86;81.17;100970.84;4992401;28;20400;-70
2022/10/10 02:58:41;;;;;;;3.17;1.00;;;;;;;11.58;82.67;100963.72;4993393;28;20045;-70
2022/10/10 03:01:07;;;;;;;2.28;0.93;;;;;;;11.56;82.97;100965.97;4986640;28;20050;-69
2022/10/10 03:03:33;;;;;;;1.02;0.90;;;;;;;11.72;81.97;100963.25;4993419;28;20023;-69
2022/10/10 03:05:58;;;;;;;3.08;1.38;;;;;;;11.70;81.90;100954.72;4993118;28;20108;-69
2022/10/10 03:08:23;;;;;;;2.65;1.02;;;;;;;11.68;81.72;100951.59;4993348;28;20165;-69
2022/10/10 03:11:00;;;;;;;2.05;0.98;;;;;;;11.64;82.43;100950.72;4989968;28;20053;-69
2022/10/10 03:13:26;;;;;;;1.98;1.17;;;;;;;11.45;82.56;100948.78;4991475;28;20172;-69
2022/10/10 03:15:52;;;;;;;10.32;1.00;;;;;;;11.58;82.68;100944.81;4993407;28;20046;-70
2022/10/10 03:18:18;;;;;;;1.08;0.98;;;;;;;11.61;82.66;100948.75;4991243;28;20026;-69
2022/10/10 03:20:45;;;;;;;1.35;0.80;;;;;;;11.57;82.69;100937.09;4983994;28;20117;-69
2022/10/10 03:23:12;;;;;;;3.75;0.90;;;;;;;11.56;83.20;100939.00;4985374;28;20042;-69
2022/10/10 03:25:42;;;;;;;1.33;0.80;;;;;;;11.57;82.78;100934.41;4988779;28;20037;-69
2022/10/10 03:28:07;;;;;;;2.75;1.00;;;;;;;11.50;82.78;100935.03;4986624;28;20034;-69
2022/10/10 03:30:33;;;;;;;2.63;1.30;;;;;;;11.46;82.65;100926.06;4972925;28;20030;-68
2022/10/10 03:32:59;;;;;;;0.70;0.70;;;;;;;11.34;83.19;100922.72;4986989;28;20034;-68
2022/10/10 03:35:24;;;;;;;2.00;0.93;;;;;;;11.42;83.39;100924.44;4987128;28;20479;-69
2022/10/10 03:37:50;;;;;;;1.75;1.17;;;;;;;11.36;83.50;100918.53;4991426;28;20038;-69
2022/10/10 03:40:15;;;;;;;2.72;1.02;;;;;;;11.31;83.40;100918.03;4988305;28;20026;-69
2022/10/10 03:42:40;;;;;;;1.08;0.90;;;;;;;11.26;84.32;100923.72;4986397;28;20034;-70
2022/10/10 03:45:06;;;;;;;2.83;0.93;;;;;;;11.26;83.87;100910.22;4991086;28;20031;-69
2022/10/10 03:47:32;;;;;;;2.25;1.05;;;;;;;11.23;84.21;100914.41;4992578;28;20026;-70
2022/10/10 03:49:57;;;;;;;1.73;1.10;;;;;;;11.13;84.53;100911.50;4989292;28;20117;-68
2022/10/10 03:52:22;;;;;;;3.58;0.88;;;;;;;11.32;83.75;100916.91;4992295;28;20052;-69
2022/10/10 03:54:48;;;;;;;3.90;0.90;;;;;;;11.35;83.43;100913.50;4984628;28;20387;-69
2022/10/10 03:57:13;;;;;;;6.65;1.20;;;;;;;11.39;82.86;100903.56;4991025;28;20042;-69
2022/10/10 03:59:39;;;;;;;0.90;0.90;;;;;;;11.44;83.01;100912.16;4991602;28;20117;-69
2022/10/10 04:02:04;;;;;;;1.48;1.00;;;;;;;10.86;85.46;100895.09;4985306;28;20026;-68
2022/10/10 04:04:29;;;;;;;2.17;1.40;;;;;;;11.00;84.80;100896.53;4996562;28;20065;-69
2022/10/10 04:06:55;;;;;;;3.28;1.27;;;;;;;10.89;85.65;100893.63;4986691;28;20053;-69
2022/10/10 04:09:21;;;;;;;3.08;1.15;;;;;;;10.75;85.86;100888.69;4991651;28;20054;-68
2022/10/10 04:11:47;;;;;;;1.33;1.02;;;;;;;10.85;85.63;100879.28;4987456;28;20077;-69
2022/10/10 04:14:12;;;;;;;2.08;1.05;;;;;;;10.88;85.69;100873.97;4990587;28;20494;-69
2022/10/10 04:16:38;;;;;;;1.98;1.30;;;;;;;10.85;86.04;100882.78;4987743;28;20057;-69
2022/10/10 04:19:03;;;;;;;2.75;1.20;;;;;;;11.04;85.67;100884.72;4997051;28;20043;-69
2022/10/10 04:21:29;;;;;;;3.42;0.90;;;;;;;11.11;84.95;100878.72;4979648;28;20033;-69
2022/10/10 04:23:54;;;;;;;3.30;1.27;;;;;;;10.98;85.11;100874.56;4987686;28;20037;-68
2022/10/10 04:26:20;;;;;;;4.78;1.20;;;;;;;11.13;85.33;100874.50;4990630;28;20026;-69
2022/10/10 04:28:45;;;;;;;1.42;1.17;;;;;;;11.15;84.89;100882.28;4979610;28;20035;-69
2022/10/10 04:31:10;;;;;;;1.35;0.95;;;;;;;11.19;84.76;100877.75;4989609;28;20026;-69
2022/10/10 04:33:36;;;;;;;1.50;0.95;;;;;;;11.18;84.02;100874.25;4987422;28;20045;-69
2022/10/10 04:36:01;;;;;;;1.48;1.02;;;;;;;11.16;84.54;100873.81;4991113;28;20034;-69
2022/10/10 04:38:28;;;;;;;1.38;1.13;;;;;;;11.09;84.24;100865.56;4990833;28;20040;-70
2022/10/10 04:40:53;;;;;;;1.58;1.08;;;;;;;11.14;84.76;100869.91;4983635;28;20867;-68
2022/10/10 04:43:19;;;;;;;4.95;1.30;;;;;;;11.13;84.57;100871.06;4989925;28;20033;-69
2022/10/10 04:45:45;;;;;;;1.55;1.02;;;;;;;11.09;85.07;100862.88;4991197;28;20136;-69
2022/10/10 04:48:10;;;;;;;0.93;0.70;;;;;;;11.04;84.21;100862.38;4991279;28;20057;-69
2022/10/10 04:50:36;;;;;;;1.92;1.60;;;;;;;10.95;84.66;100859.91;4978792;28;20081;-69
2022/10/10 04:53:02;;;;;;;3.35;1.55;;;;;;;10.76;85.51;100854.47;4979352;28;20125;-69
2022/10/10 04:55:27;;;;;;;1.13;0.80;;;;;;;10.85;85.44;100853.13;5005308;28;20041;-69
2022/10/10 04:57:53;;;;;;;1.48;1.25;;;;;;;10.89;85.67;100848.63;4989274;28;20030;-70
2022/10/10 05:00:18;;;;;;;1.90;1.30;;;;;;;10.72;86.19;100835.50;4982185;28;20391;-70
2022/10/10 05:02:46;;;;;;;1.85;1.17;;;;;;;10.92;86.05;100839.03;4999053;28;20035;-69
2022/10/10 05:05:12;;;;;;;3.28;1.65;;;;;;;10.86;85.53;100829.66;4989649;28;20545;-69
2022/10/10 05:07:37;;;;;;;1.80;1.20;;;;;;;10.80;85.18;100834.53;4991430;28;20403;-70
2022/10/10 05:10:05;;;;;;;3.20;1.38;;;;;;;10.88;84.77;100828.19;4979861;28;20380;-70
2022/10/10 05:12:31;;;;;;;2.00;1.27;;;;;;;10.95;85.27;100821.38;4990540;28;20113;-69
2022/10/10 05:14:56;;;;;;;2.25;1.58;;;;;;;10.89;85.74;100827.06;4991660;28;20106;-69
2022/10/10 05:17:22;;;;;;;2.67;1.30;;;;;;;10.87;85.69;100823.94;4988589;28;20046;-69
2022/10/10 05:19:47;;;;;;;1.33;0.90;;;;;;;10.83;84.99;100820.38;4971699;28;20435;-69
2022/10/10 05:22:12;;;;;;;2.40;1.30;;;;;;;10.85;86.00;100820.81;4986540;28;20539;-69
2022/10/10 05:24:39;;;;;;;3.00;1.73;;;;;;;10.77;85.16;100811.00;4990561;28;20117;-69
2022/10/10 05:27:04;;;;;;;1.17;1.08;;;;;;;10.87;85.27;100817.75;4985280;28;20538;-68
2022/10/10 05:29:30;;;;;;;1.30;1.20;;;;;;;10.86;85.20;100810.78;4981264;28;20026;-69
2022/10/10 05:31:55;;;;;;;1.35;1.15;;;;;;;10.78;85.39;100820.63;4986993;28;20043;-69
2022/10/10 05:34:21;;;;;;;3.85;2.60;;;;;;;11.00;84.78;100813.00;4974204;28;20118;-69
2022/10/10 05:36:46;;;;;;;2.42;1.40;;;;;;;10.85;85.21;100809.25;4978028;28;20026;-69
2022/10/10 05:39:12;;;;;;;5.82;1.40;;;;;;;10.72;85.80;100810.50;4980812;28;20034;-69
2022/10/10 05:41:37;;;;;;;1.50;1.13;;;;;;;10.82;85.34;100812.63;4985912;28;20034;-69
2022/10/10 05:44:02;;;;;;;1.88;1.13;;;;;;;10.78;85.67;100811.78;4987010;28;20030;-69
2022/10/10 05:46:28;;;;;;;1.83;1.20;;;;;;;10.82;85.34;100797.25;4990595;28;20035;-69
2022/10/10 05:48:53;;;;;;;3.25;1.50;;;;;;;11.00;85.13;100802.22;4983297;28;20038;-69
2022/10/10 05:51:20;;;;;;;3.10;1.85;;;;;;;10.68;85.45;100809.66;4985973;28;20041;-69
2022/10/10 05:53:46;;;;;;;1.58;1.48;;;;;;;10.57;85.90;100808.59;4990471;28;20038;-69
2022/10/10 05:56:14;;;;;;;1.85;1.30;;;;;;;10.81;85.13;100811.09;4990704;28;20096;-69
2022/10/10 05:58:39;;;;;;;2.35;1.25;;;;;;;10.73;85.36;100807.44;4987500;28;20018;-70
2022/10/10 06:01:06;;;;;;;1.70;1.30;;;;;;;10.72;85.90;100816.66;4983101;28;20034;-70
2022/10/10 06:03:33;;;;;;;3.88;1.85;;;;;;;10.60;85.90;100805.22;4994608;28;20388;-70
2022/10/10 06:05:58;;;;;;;1.10;0.93;;;;;;;10.55;86.13;100800.13;4986578;28;20046;-70
2022/10/10 06:08:27;;;;;;;1.67;1.48;;;;;;;10.58;86.55;100797.50;4993076;28;20026;-70
2022/10/10 06:10:52;;;;;;;1.15;1.05;;;;;;;10.59;86.56;100800.97;4991497;28;20042;-69
2022/10/10 06:13:19;;;;;;;0.98;0.98;;;;;;;10.25;87.69;100799.81;4993599;28;20038;-68
2022/10/10 06:15:44;;;;;;;2.92;1.48;;;;;;;10.38;87.44;100790.50;4992074;28;20502;-67
2022/10/10 06:18:10;;;;;;;1.45;1.10;;;;;;;10.56;86.94;100794.38;4994373;28;20037;-68
2022/10/10 06:20:37;;;;;;;1.88;1.25;;;;;;;10.67;86.58;100786.53;4989356;28;20022;-69
2022/10/10 06:23:04;;;;;;;1.05;0.82;;;;;;;10.77;86.57;100789.47;4980346;28;20038;-69
2022/10/10 06:25:31;;;;;;;3.03;1.40;;;;;;;10.85;85.81;100788.47;4988973;28;20042;-68
2022/10/10 06:27:57;;;;;;;2.33;1.30;;;;;;;10.82;85.93;100791.06;4991258;28;20333;-69
2022/10/10 06:30:22;;;;;;;3.08;2.00;;;;;;;10.76;85.85;100785.19;4989657;28;20030;-69
2022/10/10 06:32:48;;;;;;;5.22;1.75;;;;;;;10.84;84.95;100788.81;4992214;28;20632;-69
2022/10/10 06:35:13;;;;;;;1.20;1.10;;;;;;;10.54;86.43;100779.69;4992297;28;20014;-69
2022/10/10 06:37:39;;;;;;;3.17;1.65;;;;;;;10.59;86.63;100788.28;4993868;28;20042;-69
2022/10/10 06:40:05;;;;;;;2.80;1.73;;;;;;;10.69;87.08;100798.50;4981990;28;20465;-69
2022/10/10 06:42:31;;;;;;;2.50;1.27;;;;;;;10.61;86.79;100791.41;4989637;28;20015;-70
2022/10/10 06:44:56;;;;;;;3.28;1.33;;;;;;;10.72;86.18;100797.78;4992291;28;20037;-69
2022/10/10 06:47:22;;;;;;;2.50;1.13;;;;;;;10.82;85.61;100791.88;4990532;28;20116;-69
2022/10/10 06:49:47;;;;;;;1.60;1.48;;;;;;;10.83;86.27;100792.66;4984864;28;20084;-68
2022/10/10 06:52:12;;;;;;;2.65;1.45;;;;;;;10.78;85.77;100785.63;4991810;28;20049;-69
2022/10/10 06:54:38;;;;;;;3.13;1.77;;;;;;;10.72;86.38;100791.66;4985657;28;20403;-68
2022/10/10 06:57:03;;;;;;;3.33;1.65;;;;;;;10.86;85.86;100794.63;4991079;28;20124;-69
2022/10/10 06:59:29;;;;;;;2.38;1.55;;;;;;;10.78;86.37;100791.00;4991734;28;20018;-70
2022/10/10 07:01:54;;;;;;;4.03;1.75;;;;;;;10.84;86.07;100786.91;4987897;28;20043;-70
2022/10/10 07:04:20;;;;;;;2.25;1.70;;;;;;;10.78;85.30;100785.63;4991971;28;20207;-68
2022/10/10 07:06:45;;;;;;;1.35;1.08;;;;;;;10.88;86.11;100776.97;4992883;28;20034;-69
2022/10/10 07:09:10;;;;;;;1.92;1.40;;;;;;;10.95;85.57;100776.38;4987944;28;20047;-69
2022/10/10 07:11:36;;;;;;;3.35;1.55;;;;;;;10.97;85.63;100773.31;4994836;28;20035;-69
2022/10/10 07:14:04;;;;;;;3.25;1.63;;;;;;;10.95;85.52;100775.56;4990367;28;20092;-69
2022/10/10 07:16:30;;;;;;;3.47;2.30;;;;;;;11.22;84.76;100782.69;4985344;28;20113;-70
2022/10/10 07:18:55;;;;;;;3.22;1.63;;;;;;;11.41;84.45;100774.56;4988646;28;20165;-70
2022/10/10 07:21:21;;;;;;;1.90;1.60;;;;;;;11.68;83.42;100774.34;4991246;28;20091;-68
2022/10/10 07:23:46;;;;;;;2.13;1.50;;;;;;;11.81;83.02;100766.09;4993215;28;20053;-69
2022/10/10 07:26:15;;;;;;;2.60;1.35;;;;;;;11.92;82.80;100767.81;4987847;28;20495;-69
2022/10/10 07:28:40;;;;;;;2.70;1.67;;;;;;;12.07;81.33;100779.59;4987087;28;20037;-69
2022/10/10 07:31:09;;;;;;;2.25;1.67;;;;;;;12.54;79.42;100785.38;4991294;28;20499;-69
2022/10/10 07:33:47;;;;;;;2.25;1.50;;;;;;;12.59;79.01;100780.41;4991781;28;20041;-69
2022/10/10 07:36:13;;;;;;;2.55;1.30;;;;;;;12.69;77.83;100782.50;4984757;28;20061;-70
2022/10/10 07:38:38;;;;;;;5.18;1.50;;;;;;;12.64;77.57;100773.91;4991639;28;20032;-70
2022/10/10 07:41:10;;;;;;;3.40;1.38;;;;;;;12.54;77.99;100786.13;4991443;28;20121;-70
2022/10/10 07:43:36;;;;;;;;;;;;;;;13.08;76.12;100774.91;4975738;28;20402;-71
2022/10/10 07:46:03;;;;;;;2.28;1.38;;;;;;;13.39;75.45;100768.31;4984532;28;19918;-70
2022/10/10 07:48:29;;;;;;;1.55;1.17;;;;;;;13.59;73.66;100770.44;4992584;28;20061;-71
2022/10/10 07:50:56;;;;;;;2.28;1.30;;;;;;;13.62;72.58;100771.63;5021416;23;20050;-64
2022/10/10 07:53:25;;;;;;;6.57;1.75;;;;;;;13.99;72.00;100774.28;5008701;28;20018;-64
2022/10/10 07:55:51;;;;;;;2.47;0.90;;;;;;;13.87;71.79;100769.16;5007067;28;20046;-64
2022/10/10 07:58:17;;;;;;;1.42;0.85;;;;;;;14.11;71.32;100771.31;5003674;28;20030;-64
2022/10/10 08:00:43;;;;;;;4.75;1.38;;;;;;;14.20;71.31;100769.03;4997430;28;20045;-64
2022/10/10 08:03:10;;;;;;;1.98;1.20;;;;;;;14.53;71.03;100762.72;5004055;28;20038;-65
2022/10/10 08:05:42;;;;;;;3.35;1.38;;;;;;;14.83;69.08;100766.75;4988724;28;20038;-64
2022/10/10 08:08:10;;;;;;;1.50;1.20;;;;;;;14.94;68.48;100764.09;4987862;28;20047;-64
2022/10/10 08:10:36;;;;;;;7.47;1.40;;;;;;;14.94;67.47;100764.84;4997748;28;20027;-65
2022/10/10 08:13:03;;;;;;;4.53;1.40;;;;;;;14.47;68.29;100767.72;4999976;28;20049;-64
2022/10/10 08:15:32;;;;;;;2.85;1.50;;;;;;;14.33;70.00;100757.56;4986714;28;20569;-65
2022/10/10 08:18:00;;;;;;;2.05;1.20;;;;;;;14.41;68.68;100756.44;4994921;28;20033;-65
2022/10/10 08:20:26;;;;;;;1.30;1.00;;;;;;;14.57;68.82;100755.38;4995425;28;20046;-64
2022/10/10 08:22:55;;;;;;;3.28;1.17;;;;;;;14.44;70.52;100763.03;4993095;28;20031;-64
2022/10/10 08:25:24;;;;;;;2.00;1.10;;;;;;;14.67;69.48;100755.44;4998399;28;20069;-65
2022/10/10 08:27:54;;;;;;;2.00;1.20;;;;;;;14.53;70.30;100765.41;5001356;28;20035;-64
2022/10/10 08:30:22;;;;;;;1.27;1.00;;;;;;;14.40;70.34;100749.47;4987258;28;20034;-64
2022/10/10 08:32:48;;;;;;;3.10;1.25;;;;;;;14.58;69.41;100752.28;4977664;28;20050;-65
2022/10/10 08:35:13;;;;;;;3.78;1.77;;;;;;;14.54;70.28;100743.34;4983252;28;20137;-65
2022/10/10 08:37:39;;;;;;;1.88;0.95;;;;;;;14.89;69.97;100737.31;4978905;28;20019;-65
2022/10/10 08:40:05;;;;;;;1.77;1.23;;;;;;;14.77;69.17;100743.09;4988341;28;20046;-64
2022/10/10 08:42:37;;;;;;;6.30;2.40;;;;;;;15.10;68.51;100745.53;4987809;28;20034;-65
2022/10/10 08:45:12;;;;;;;2.30;1.40;;;;;;;15.26;68.79;100732.41;4991600;28;20057;-64
2022/10/10 08:47:53;;;;;;;2.75;1.02;;;;;;;15.53;67.66;100730.16;4978459;28;20046;-65
2022/10/10 08:50:24;;;;;;;1.95;0.90;;;;;;;15.54;67.26;100729.00;4981795;28;20604;-64
2022/10/10 08:52:52;;;;;;;;;;;;;;;15.64;66.80;100731.72;4988263;28;20045;-64
2022/10/10 08:55:32;;;;;;;3.92;1.10;;;;;;;15.83;66.66;100723.19;4984808;28;20421;-66
2022/10/10 08:58:19;;;;;;;2.40;1.10;;;;;;;16.12;66.57;100722.00;4990510;28;20100;-64
2022/10/10 09:00:50;;;;;;;2.22;1.00;;;;;;;16.62;64.30;100719.22;4976796;28;20523;-65
2022/10/10 09:03:40;;;;;;;2.58;1.30;;;;;;;16.47;64.99;100709.53;4990075;28;20056;-65
2022/10/10 09:06:18;;;;;;;1.20;1.08;;;;;;;16.73;63.56;100715.31;4973250;28;20096;-65
2022/10/10 09:09:10;;;;;;;3.50;0.82;;;;;;;16.73;63.00;100714.53;4991377;28;20096;-64
2022/10/10 09:11:39;;;;;;;3.33;1.00;;;;;;;17.17;61.73;100720.13;4989215;28;20034;-65
2022/10/10 09:14:18;;;;;;;2.72;1.10;;;;;;;17.17;62.07;100713.94;4985060;28;20046;-65
2022/10/10 09:17:02;;;;;;;3.55;1.38;;;;;;;17.35;61.11;100715.38;4979648;28;20045;-65
2022/10/10 09:19:57;;;;;;;1.27;0.82;;;;;;;17.48;61.31;100719.22;4986003;28;20045;-65
2022/10/10 09:22:28;;;;;;;0.93;0.90;;;;;;;17.57;60.45;100708.66;4981666;28;20066;-66
2022/10/10 09:25:07;;;;;;;1.30;0.98;;;;;;;17.32;60.27;100713.47;4991151;28;20046;-64
2022/10/10 09:27:41;;;;;;;2.95;1.20;;;;;;;17.51;60.91;100714.91;4977111;28;20105;-64
2022/10/10 09:30:16;;;;;;;1.52;0.68;;;;;;;17.60;60.88;100701.63;4972594;28;20471;-65
2022/10/10 09:32:53;;;;;;;2.35;1.77;;;;;;;17.40;61.00;100704.06;4983165;28;20057;-65
2022/10/10 09:35:26;;;;;;;3.40;1.30;;;;;;;17.23;62.33;100694.06;4989876;28;20038;-65
2022/10/10 09:38:08;;;;;;;1.45;1.08;;;;;;;17.26;62.47;100687.84;4995307;28;20129;-64
2022/10/10 09:40:38;;;;;;;1.27;0.90;;;;;;;17.30;62.60;100696.75;4983229;28;20042;-64
2022/10/10 09:43:17;;;;;;;1.67;0.80;;;;;;;17.47;62.72;100693.13;4996021;28;20042;-65
2022/10/10 09:45:56;;;;;;;3.63;1.00;;;;;;;17.31;63.02;100692.84;4992112;28;20038;-64
2022/10/10 09:48:37;;;;;;;1.10;0.77;;;;;;;17.44;62.61;100688.47;4985203;28;20490;-64
2022/10/10 09:51:06;;;;;;;0.93;0.73;;;;;;;17.66;62.26;100687.16;4986046;28;20109;-65
2022/10/10 09:53:32;;;;;;;1.95;1.30;;;;;;;17.90;62.23;100688.91;4990936;28;20292;-64
2022/10/10 09:55:58;;;;;;;1.30;0.80;;;;;;;17.91;61.87;100685.00;4985622;28;20034;-65
2022/10/10 09:58:44;;;;;;;0.77;0.77;;;;;;;17.75;61.54;100682.03;4984466;28;20039;-65
2022/10/10 10:01:19;;;;;;;1.17;0.82;;;;;;;17.71;62.30;100681.28;4982851;28;20125;-64
2022/10/10 10:04:16;;;;;;;2.17;0.90;;;;;;;17.86;62.32;100681.94;4989446;28;20498;-65
2022/10/10 10:06:49;;;;;;;2.42;1.00;;;;;;;18.13;61.24;100682.84;4992915;28;20045;-65
2022/10/10 10:09:18;;;;;;;2.88;0.88;;;;;;;17.96;60.86;100681.09;4979670;28;20510;-65
2022/10/10 10:11:47;;;;;;;0.90;0.70;;;;;;;17.87;62.31;100678.81;5000014;28;20628;-65
2022/10/10 10:14:37;;;;;;;2.30;0.90;;;;;;;18.03;62.17;100679.06;4996768;28;20041;-65
2022/10/10 10:17:09;;;;;;;1.45;0.95;;;;;;;18.11;61.36;100684.44;4996771;28;20046;-65
2022/10/10 10:19:39;;;;;;;1.60;0.93;;;;;;;17.87;62.14;100678.03;4986714;28;20039;-65
2022/10/10 10:22:24;;;;;;;1.92;1.02;;;;;;;18.09;62.38;100667.72;4986065;28;20043;-65
2022/10/10 10:24:49;;;;;;;3.00;0.98;;;;;;;18.10;61.38;100669.28;4994695;28;20092;-65
2022/10/10 10:27:20;;;;;;;1.27;0.77;;;;;;;18.29;61.12;100660.50;4990151;28;20070;-64
2022/10/10 10:29:49;;;;;;;0.75;0.60;;;;;;;18.40;61.04;100672.06;4973070;28;20494;-65
2022/10/10 10:32:33;;;;;;;1.42;0.70;;;;;;;18.28;61.01;100676.06;4988174;28;20390;-64
2022/10/10 10:35:13;;;;;;;1.42;0.80;;;;;;;18.40;61.45;100666.59;4986231;28;20042;-65
2022/10/10 10:38:09;;;;;;;1.15;0.80;;;;;;;18.27;61.35;100671.81;4992290;28;20034;-65
2022/10/10 10:40:55;;;;;;;1.23;0.85;;;;;;;18.45;61.28;100664.22;4983878;28;20046;-65
2022/10/10 10:43:45;;;;;;;2.60;0.88;;;;;;;18.60;62.49;100670.28;4986510;28;20357;-64
2022/10/10 10:46:17;;;;;;;2.22;0.80;;;;;;;18.61;59.65;100669.88;4991016;28;20042;-64
2022/10/10 10:48:49;;;;;;;0.80;0.50;;;;;;;18.32;60.91;100665.13;4984095;28;20030;-64
2022/10/10 10:51:41;;;;;;;3.95;1.20;;;;;;;18.63;60.36;100680.38;4988110;28;20030;-64
2022/10/10 10:54:24;;;;;;;1.60;0.80;;;;;;;18.73;60.62;100676.75;4988130;28;20117;-64
2022/10/10 10:57:10;;;;;;;3.35;0.57;;;;;;;18.83;59.37;100667.66;4988193;28;20573;-65
2022/10/10 11:00:01;;;;;;;1.17;0.63;;;;;;;19.05;59.38;100674.34;4988873;28;20034;-65
2022/10/10 11:02:38;;;;;;;;;;;;;;;18.76;59.30;100665.00;4986263;28;20037;-65
2022/10/10 11:05:16;;;;;;;1.77;0.82;;;;;;;18.88;59.86;100667.97;4989013;28;20406;-65
2022/10/10 11:07:51;;;;;;;2.22;0.80;;;;;;;18.67;60.08;100664.75;4990036;28;20108;-65
2022/10/10 11:10:37;;;;;;;0.98;0.70;;;;;;;18.67;60.29;100654.59;4999182;28;20061;-65
2022/10/10 11:13:22;;;;;;;1.17;0.47;;;;;;;18.64;61.82;100662.84;4989765;28;20166;-65
2022/10/10 11:15:55;;;;;;;1.38;0.80;;;;;;;18.87;60.71;100660.19;4979593;28;20035;-65
2022/10/10 11:18:29;;;;;;;0.52;0.52;;;;;;;18.96;60.12;100660.44;4963673;28;20034;-64
2022/10/10 11:21:05;;;;;;;1.95;0.82;;;;;;;19.20;59.71;100653.09;4973467;28;20030;-65
2022/10/10 11:23:42;;;;;;;0.93;0.50;;;;;;;19.35;59.82;100663.44;4988092;28;20045;-65
2022/10/10 11:26:21;;;;;;;1.27;0.80;;;;;;;19.49;59.04;100654.97;4983065;28;20034;-65
2022/10/10 11:28:52;;;;;;;1.95;0.80;;;;;;;19.42;59.64;100651.59;4985090;28;20506;-65
2022/10/10 11:31:24;;;;;;;1.88;0.50;;;;;;;19.62;59.30;100655.19;4972130;28;20030;-65
2022/10/10 11:33:58;;;;;;;2.42;1.00;;;;;;;19.68;58.98;100654.31;4982705;28;20050;-65
2022/10/10 11:36:33;;;;;;;0.95;0.68;;;;;;;19.48;59.06;100647.22;4972049;28;20038;-65
2022/10/10 11:39:21;;;;;;;4.25;0.73;;;;;;;19.57;58.38;100644.72;4979828;28;20045;-65
2022/10/10 11:41:55;;;;;;;0.82;0.50;;;;;;;19.54;59.29;100645.56;4986024;28;20035;-65